createdAt,value
2019-04-27T00:01:16.169Z,29.40
2019-04-27T00:03:48.050Z,29.40
2019-04-27T00:06:19.439Z,29.40
2019-04-27T00:08:50.777Z,29.50
2019-04-27T00:11:24.760Z,29.50
2019-04-27T00:13:54.437Z,29.50
2019-04-27T00:16:46.912Z,29.50
2019-04-27T00:19:31.808Z,29.60
2019-04-27T00:22:10.074Z,29.60
2019-04-27T00:24:39.822Z,29.80
2019-04-27T00:27:09.908Z,29.80
2019-04-27T00:29:39.912Z,29.90
2019-04-27T00:32:09.700Z,29.80
2019-04-27T00:34:39.396Z,29.90
2019-04-27T00:37:10.645Z,29.90
2019-04-27T00:39:53.519Z,29.90
2019-04-27T00:42:23.318Z,30.10
2019-04-27T00:44:54.177Z,29.90
2019-04-27T00:47:24.064Z,29.90
2019-04-27T00:49:54.935Z,30.10
2019-04-27T00:52:24.856Z,30.10
2019-04-27T00:54:54.492Z,30.30
2019-04-27T00:57:28.366Z,30.30
2019-04-27T01:00:16.143Z,30.30
2019-04-27T01:03:03.783Z,30.30
2019-04-27T01:05:33.897Z,30.30
2019-04-27T01:08:23.156Z,30.40
2019-04-27T01:10:53.766Z,30.40
2019-04-27T01:13:23.534Z,30.40
2019-04-27T01:15:54.160Z,30.40
2019-04-27T01:18:24.238Z,30.40
2019-04-27T01:20:53.940Z,30.40
2019-04-27T01:23:23.615Z,30.40
2019-04-27T01:26:11.451Z,30.40
2019-04-27T01:28:43.134Z,30.60
2019-04-27T01:31:14.533Z,30.60
2019-04-27T01:33:44.551Z,30.70
2019-04-27T01:36:14.254Z,30.70
2019-04-27T01:38:43.985Z,30.70
2019-04-27T01:41:13.738Z,30.70
2019-04-27T01:43:43.538Z,30.80
2019-04-27T01:46:13.219Z,30.80
2019-04-27T01:48:42.967Z,30.80
2019-04-27T01:51:12.806Z,30.80
2019-04-27T01:53:42.982Z,31.00
2019-04-27T01:56:12.689Z,31.00
2019-04-27T01:58:42.396Z,31.00
2019-04-27T02:01:18.867Z,31.00
2019-04-27T02:03:55.778Z,31.00
2019-04-27T02:06:26.961Z,31.00
2019-04-27T02:08:56.973Z,31.10
2019-04-27T02:11:26.678Z,31.30
2019-04-27T02:13:56.286Z,31.30
2019-04-27T02:16:26.078Z,31.30
2019-04-27T02:18:56.016Z,31.30
2019-04-27T02:21:25.729Z,31.30
2019-04-27T02:23:55.399Z,31.30
2019-04-27T02:26:25.127Z,31.30
2019-04-27T02:29:14.904Z,31.30
2019-04-27T02:32:04.113Z,31.30
2019-04-27T02:34:50.552Z,31.30
2019-04-27T02:37:20.714Z,31.40
2019-04-27T02:39:50.838Z,31.40
2019-04-27T02:42:22.491Z,31.40
2019-04-27T02:44:52.266Z,31.40
2019-04-27T02:47:22.048Z,31.40
2019-04-27T02:49:51.899Z,31.40
2019-04-27T02:52:23.198Z,31.40
2019-04-27T02:54:52.970Z,31.40
2019-04-27T02:57:22.655Z,31.60
2019-04-27T02:59:52.439Z,31.60
2019-04-27T03:02:23.867Z,31.60
2019-04-27T03:04:53.608Z,31.60
2019-04-27T03:07:23.234Z,31.60
2019-04-27T03:09:52.913Z,31.60
2019-04-27T03:12:24.237Z,31.70
2019-04-27T03:15:04.350Z,31.70
2019-04-27T03:17:41.815Z,31.90
2019-04-27T03:20:20.160Z,31.90
2019-04-27T03:22:51.942Z,32.00
2019-04-27T03:25:23.600Z,31.90
2019-04-27T03:27:55.765Z,32.00
2019-04-27T03:30:25.518Z,31.90
2019-04-27T03:32:56.129Z,32.00
2019-04-27T03:35:26.578Z,32.00
2019-04-27T03:37:56.252Z,32.00
2019-04-27T03:40:26.006Z,31.90
2019-04-27T03:42:59.545Z,31.90
2019-04-27T03:45:29.857Z,31.90
2019-04-27T03:48:00.893Z,31.90
2019-04-27T03:50:39.833Z,31.90
2019-04-27T03:53:26.262Z,31.70
2019-04-27T03:56:03.722Z,31.70
2019-04-27T03:58:35.076Z,31.70
2019-04-27T04:01:05.235Z,31.70
2019-04-27T04:03:35.025Z,31.90
2019-04-27T04:06:05.257Z,31.90
2019-04-27T04:08:35.211Z,31.70
2019-04-27T04:11:06.621Z,31.90
2019-04-27T04:13:43.778Z,31.90
2019-04-27T04:16:15.126Z,31.90
2019-04-27T04:19:01.302Z,31.90
2019-04-27T04:21:31.122Z,31.90
2019-04-27T04:24:01.452Z,31.90
2019-04-27T04:26:32.839Z,32.00
2019-04-27T04:29:02.632Z,32.00
2019-04-27T04:31:33.128Z,31.90
2019-04-27T04:34:03.222Z,32.00
2019-04-27T04:36:32.834Z,32.00
2019-04-27T04:39:02.714Z,32.00
2019-04-27T04:41:34.033Z,32.00
2019-04-27T04:44:21.893Z,32.00
2019-04-27T04:46:53.312Z,32.00
2019-04-27T04:49:42.700Z,32.20
2019-04-27T04:52:12.381Z,32.20
2019-04-27T04:54:42.261Z,32.20
2019-04-27T04:57:12.014Z,32.20
2019-04-27T04:59:43.818Z,32.30
2019-04-27T05:02:13.395Z,32.20
2019-04-27T05:04:43.183Z,32.20
2019-04-27T05:07:12.875Z,32.20
2019-04-27T05:09:42.581Z,32.30
2019-04-27T05:12:12.210Z,32.20
2019-04-27T05:14:41.915Z,32.20
2019-04-27T05:17:11.513Z,32.20
2019-04-27T05:19:41.241Z,32.20
2019-04-27T05:22:11.069Z,32.20
2019-04-27T05:24:40.708Z,32.20
2019-04-27T05:27:10.404Z,32.00
2019-04-27T05:29:40.082Z,32.00
2019-04-27T05:32:09.789Z,32.00
2019-04-27T05:34:39.539Z,32.00
2019-04-27T05:37:10.597Z,32.20
2019-04-27T05:39:40.388Z,32.00
2019-04-27T05:42:11.004Z,31.90
2019-04-27T05:45:21.390Z,31.90
2019-04-27T05:47:52.100Z,31.90
2019-04-27T05:50:22.045Z,31.90
2019-04-27T05:52:51.985Z,31.70
2019-04-27T05:55:21.702Z,31.70
2019-04-27T05:57:51.324Z,31.70
2019-04-27T06:00:21.777Z,32.60
2019-04-27T06:02:51.390Z,33.10
2019-04-27T06:05:22.687Z,32.80
2019-04-27T06:07:53.118Z,32.60
2019-04-27T06:10:22.920Z,32.20
2019-04-27T06:12:52.881Z,31.90
2019-04-27T06:15:23.029Z,31.60
2019-04-27T06:17:53.084Z,31.40
2019-04-27T06:20:22.843Z,31.40
2019-04-27T06:23:11.868Z,31.30
2019-04-27T06:25:41.590Z,31.30
2019-04-27T06:28:11.394Z,31.30
2019-04-27T06:30:41.184Z,31.10
2019-04-27T06:33:10.878Z,31.10
2019-04-27T06:35:40.611Z,31.00
2019-04-27T06:38:11.628Z,31.00
2019-04-27T06:40:41.314Z,30.80
2019-04-27T06:43:11.077Z,30.70
2019-04-27T06:46:00.125Z,30.80
2019-04-27T06:48:29.813Z,30.80
2019-04-27T06:51:03.613Z,30.80
2019-04-27T06:53:31.127Z,30.80
2019-04-27T06:56:01.118Z,30.80
2019-04-27T06:58:31.307Z,30.70
2019-04-27T07:01:01.295Z,30.80
2019-04-27T07:03:31.660Z,30.80
2019-04-27T07:06:01.336Z,30.80
2019-04-27T07:08:31.120Z,30.80
2019-04-27T07:11:00.772Z,30.80
2019-04-27T07:13:30.353Z,30.70
2019-04-27T07:16:00.114Z,30.80
2019-04-27T07:18:29.791Z,31.00
2019-04-27T07:20:59.595Z,31.00
2019-04-27T07:23:29.360Z,30.80
2019-04-27T07:25:59.855Z,30.80
2019-04-27T07:28:29.735Z,30.70
2019-04-27T07:30:59.546Z,30.40
2019-04-27T07:33:29.689Z,30.30
2019-04-27T07:35:59.351Z,30.30
2019-04-27T07:38:29.427Z,30.10
2019-04-27T07:40:59.199Z,29.90
2019-04-27T07:43:36.241Z,29.90
2019-04-27T07:46:28.121Z,29.80
2019-04-27T07:48:56.696Z,29.70
2019-04-27T07:51:33.657Z,29.70
2019-04-27T07:53:58.883Z,29.50
2019-04-27T07:56:29.137Z,29.50
2019-04-27T07:59:18.856Z,29.40
2019-04-27T08:01:49.197Z,29.40
2019-04-27T08:04:18.898Z,29.40
2019-04-27T08:06:49.636Z,29.30
2019-04-27T08:09:19.429Z,29.30
2019-04-27T08:11:49.497Z,29.30
2019-04-27T08:14:19.187Z,29.30
2019-04-27T08:16:48.824Z,29.30
2019-04-27T08:19:19.642Z,29.30
2019-04-27T08:21:49.984Z,29.30
2019-04-27T08:24:19.750Z,29.40
2019-04-27T08:27:02.966Z,29.30
2019-04-27T08:29:40.055Z,29.30
2019-04-27T08:32:26.788Z,29.40
2019-04-27T08:34:56.484Z,29.30
2019-04-27T08:37:26.251Z,29.30
2019-04-27T08:39:56.012Z,29.20
2019-04-27T08:42:26.292Z,29.10
2019-04-27T08:44:55.999Z,29.00
2019-04-27T08:47:25.731Z,28.70
2019-04-27T08:49:55.680Z,28.40
2019-04-27T08:52:25.396Z,28.20
2019-04-27T08:54:55.035Z,28.00
2019-04-27T08:57:24.737Z,27.70
2019-04-27T08:59:54.470Z,27.40
2019-04-27T09:02:24.094Z,27.30
2019-04-27T09:04:53.888Z,27.20
2019-04-27T09:07:29.458Z,27.20
2019-04-27T09:10:13.166Z,27.20
2019-04-27T09:12:53.312Z,27.10
2019-04-27T09:15:29.452Z,27.20
2019-04-27T09:18:00.682Z,27.10
2019-04-27T09:20:44.147Z,26.90
2019-04-27T09:23:13.856Z,26.90
2019-04-27T09:25:43.518Z,26.90
2019-04-27T09:28:13.313Z,26.90
2019-04-27T09:30:43.121Z,26.90
2019-04-27T09:33:12.920Z,26.60
2019-04-27T09:35:42.552Z,26.50
2019-04-27T09:38:12.421Z,26.40
2019-04-27T09:40:42.115Z,26.20
2019-04-27T09:43:12.224Z,26.10
2019-04-27T09:45:41.987Z,26.00
2019-04-27T09:48:11.724Z,25.90
2019-04-27T09:50:41.407Z,25.80
2019-04-27T09:53:11.070Z,25.80
2019-04-27T09:55:40.824Z,25.80
2019-04-27T09:58:10.511Z,25.80
2019-04-27T10:00:40.255Z,25.90
2019-04-27T10:03:11.310Z,25.80
2019-04-27T10:05:41.072Z,25.70
2019-04-27T10:08:10.724Z,25.60
2019-04-27T10:10:40.352Z,25.50
2019-04-27T10:13:09.986Z,25.50
2019-04-27T10:15:40.083Z,25.50
2019-04-27T10:18:09.823Z,25.60
2019-04-27T10:20:41.061Z,25.60
2019-04-27T10:23:10.887Z,25.60
2019-04-27T10:25:40.552Z,25.40
2019-04-27T10:28:10.578Z,25.00
2019-04-27T10:30:40.707Z,25.10
2019-04-27T10:33:10.354Z,25.20
2019-04-27T10:35:40.139Z,25.10
2019-04-27T10:38:09.760Z,24.80
2019-04-27T10:40:39.405Z,24.70
2019-04-27T10:43:09.106Z,24.80
2019-04-27T10:45:38.812Z,24.70
2019-04-27T10:48:08.565Z,24.30
2019-04-27T10:50:38.538Z,24.40
2019-04-27T10:53:08.253Z,24.70
2019-04-27T10:55:38.326Z,24.30
2019-04-27T10:58:08.324Z,24.40
2019-04-27T11:00:39.846Z,24.50
2019-04-27T11:03:09.600Z,24.30
2019-04-27T11:05:46.947Z,24.00
2019-04-27T11:08:16.803Z,23.70
2019-04-27T11:10:46.806Z,23.50
2019-04-27T11:13:16.580Z,23.40
2019-04-27T11:15:46.601Z,23.40
2019-04-27T11:18:16.752Z,23.60
2019-04-27T11:20:46.957Z,23.70
2019-04-27T11:23:16.677Z,23.30
2019-04-27T11:25:46.909Z,23.00
2019-04-27T11:28:16.631Z,22.80
2019-04-27T11:30:46.738Z,22.70
2019-04-27T11:33:16.419Z,22.70
2019-04-27T11:35:47.689Z,22.90
2019-04-27T11:38:17.351Z,22.50
2019-04-27T11:40:47.159Z,22.60
2019-04-27T11:43:16.753Z,22.40
2019-04-27T11:45:46.394Z,23.00
2019-04-27T11:48:16.177Z,22.60
2019-04-27T11:50:46.060Z,22.30
2019-04-27T11:53:22.855Z,22.20
2019-04-27T11:55:47.093Z,22.90
2019-04-27T11:58:16.702Z,23.10
2019-04-27T12:00:46.488Z,21.60
2019-04-27T12:03:16.619Z,22.00
2019-04-27T12:05:46.596Z,21.60
2019-04-27T12:08:16.359Z,21.70
2019-04-27T12:10:48.254Z,21.70
2019-04-27T12:13:18.042Z,21.90
2019-04-27T12:15:47.818Z,21.70
2019-04-27T12:18:17.449Z,21.90
2019-04-27T12:20:47.381Z,21.80
2019-04-27T12:23:17.018Z,21.90
2019-04-27T12:25:46.744Z,21.80
2019-04-27T12:28:18.026Z,22.10
2019-04-27T12:31:01.417Z,21.60
2019-04-27T12:33:31.204Z,21.40
2019-04-27T12:36:00.901Z,21.40
2019-04-27T12:38:30.592Z,21.20
2019-04-27T12:41:00.217Z,21.40
2019-04-27T12:43:29.899Z,21.30
2019-04-27T12:46:00.137Z,21.30
2019-04-27T12:48:30.270Z,21.40
2019-04-27T12:51:00.080Z,21.60
2019-04-27T12:53:47.718Z,21.60
2019-04-27T12:56:09.816Z,22.30
2019-04-27T12:58:52.933Z,21.60
2019-04-27T13:01:29.932Z,22.30
2019-04-27T13:03:59.609Z,20.90
2019-04-27T13:06:29.304Z,21.90
2019-04-27T13:08:59.072Z,22.00
2019-04-27T13:11:28.886Z,21.80
2019-04-27T13:13:58.489Z,22.00
2019-04-27T13:16:30.400Z,21.70
2019-04-27T13:18:59.659Z,21.80
2019-04-27T13:21:48.738Z,21.90
2019-04-27T13:24:18.506Z,21.90
2019-04-27T13:26:48.246Z,22.00
2019-04-27T13:29:18.022Z,22.10
2019-04-27T13:31:47.965Z,22.10
2019-04-27T13:34:18.085Z,22.10
2019-04-27T13:36:47.844Z,22.20
2019-04-27T13:39:17.610Z,22.20
2019-04-27T13:41:47.508Z,22.30
2019-04-27T13:44:17.134Z,22.40
2019-04-27T13:47:06.194Z,22.50
2019-04-27T13:49:37.715Z,22.50
2019-04-27T13:52:09.152Z,22.70
2019-04-27T13:54:38.790Z,22.60
2019-04-27T13:57:08.568Z,22.70
2019-04-27T13:59:38.283Z,22.70
2019-04-27T14:02:08.021Z,22.60
2019-04-27T14:04:37.651Z,22.60
2019-04-27T14:07:09.064Z,22.50
2019-04-27T14:09:39.289Z,22.50
2019-04-27T14:12:21.394Z,22.50
2019-04-27T14:14:51.441Z,22.50
2019-04-27T14:17:21.195Z,22.50
2019-04-27T14:19:50.914Z,22.40
2019-04-27T14:22:20.678Z,22.20
2019-04-27T14:24:50.772Z,22.30
2019-04-27T14:27:22.427Z,22.30
2019-04-27T14:29:52.203Z,22.50
2019-04-27T14:32:22.010Z,22.30
2019-04-27T14:34:51.701Z,22.30
2019-04-27T14:37:21.394Z,22.30
2019-04-27T14:39:51.165Z,22.40
2019-04-27T14:42:20.983Z,22.20
2019-04-27T14:44:50.756Z,22.30
2019-04-27T14:47:20.452Z,22.20
2019-04-27T14:49:50.209Z,22.20
2019-04-27T14:52:19.881Z,22.10
2019-04-27T14:54:50.909Z,22.10
2019-04-27T14:57:20.802Z,21.90
2019-04-27T14:59:51.315Z,21.90
2019-04-27T15:02:21.120Z,21.80
2019-04-27T15:04:50.982Z,21.90
2019-04-27T15:07:20.676Z,21.80
2019-04-27T15:09:54.407Z,21.80
2019-04-27T15:12:24.443Z,21.70
2019-04-27T15:14:57.191Z,21.70
2019-04-27T15:17:26.566Z,21.60
2019-04-27T15:20:00.674Z,21.70
2019-04-27T15:22:31.435Z,21.70
2019-04-27T15:25:13.032Z,21.70
2019-04-27T15:27:37.365Z,21.80
2019-04-27T15:30:11.484Z,21.70
2019-04-27T15:32:42.379Z,21.70
2019-04-27T15:35:13.779Z,21.70
2019-04-27T15:37:48.242Z,21.80
2019-04-27T15:40:29.533Z,21.80
2019-04-27T15:43:00.867Z,21.80
2019-04-27T15:45:30.616Z,21.80
2019-04-27T15:48:00.308Z,21.90
2019-04-27T15:50:32.160Z,21.90
2019-04-27T15:53:03.010Z,21.80
2019-04-27T15:55:36.800Z,21.80
2019-04-27T15:58:03.968Z,21.80
2019-04-27T16:00:33.723Z,21.80
2019-04-27T16:03:03.397Z,21.80
2019-04-27T16:05:35.854Z,21.90
2019-04-27T16:08:05.618Z,21.90
2019-04-27T16:10:37.366Z,22.00
2019-04-27T16:13:13.435Z,22.20
2019-04-27T16:15:38.782Z,22.20
2019-04-27T16:18:08.861Z,22.30
2019-04-27T16:20:38.959Z,22.40
2019-04-27T16:23:08.920Z,22.60
2019-04-27T16:25:48.273Z,22.60
2019-04-27T16:28:13.385Z,22.60
2019-04-27T16:30:45.700Z,22.80
2019-04-27T16:33:15.381Z,22.90
2019-04-27T16:35:45.185Z,23.00
2019-04-27T16:38:34.863Z,23.10
2019-04-27T16:41:04.938Z,23.10
2019-04-27T16:43:34.611Z,23.20
2019-04-27T16:46:05.503Z,23.20
2019-04-27T16:48:36.326Z,23.30
2019-04-27T16:51:06.106Z,23.40
2019-04-27T16:53:38.202Z,23.50
2019-04-27T16:56:14.247Z,23.60
2019-04-27T16:58:39.843Z,23.70
2019-04-27T17:01:30.719Z,23.80
2019-04-27T17:04:00.664Z,23.90
2019-04-27T17:06:30.432Z,24.00
2019-04-27T17:09:05.534Z,24.10
2019-04-27T17:11:31.520Z,24.20
2019-04-27T17:14:08.578Z,24.30
2019-04-27T17:16:40.027Z,24.30
2019-04-27T17:19:28.666Z,24.40
2019-04-27T17:21:59.266Z,24.40
2019-04-27T17:27:29.177Z,24.80
2019-04-27T17:30:01.408Z,25.10
2019-04-27T17:32:42.967Z,25.20
2019-04-27T17:35:14.895Z,25.20
2019-04-27T17:37:44.061Z,25.40
2019-04-27T17:40:15.418Z,25.50
2019-04-27T17:42:45.348Z,25.70
2019-04-27T17:45:15.388Z,25.40
2019-04-27T17:47:45.096Z,25.60
2019-04-27T17:50:18.363Z,25.60
2019-04-27T17:52:48.436Z,25.70
2019-04-27T17:55:24.149Z,25.70
2019-04-27T17:57:50.444Z,25.70
2019-04-27T18:00:20.284Z,25.70
2019-04-27T18:03:12.678Z,25.70
2019-04-27T18:05:43.804Z,25.90
2019-04-27T18:08:13.638Z,25.80
2019-04-27T18:10:44.797Z,26.10
2019-04-27T18:13:33.859Z,26.20
2019-04-27T18:16:03.801Z,26.50
2019-04-27T18:18:40.985Z,26.90
2019-04-27T18:21:11.940Z,27.10
2019-04-27T18:23:55.417Z,27.30
2019-04-27T18:26:49.276Z,27.20
2019-04-27T18:29:14.570Z,27.40
2019-04-27T18:31:46.341Z,27.40
2019-04-27T18:34:17.331Z,27.50
2019-04-27T18:36:47.666Z,27.80
2019-04-27T18:39:18.228Z,27.90
2019-04-27T18:41:50.554Z,27.80
2019-04-27T18:44:23.936Z,28.10
2019-04-27T18:46:53.798Z,28.20
2019-04-27T18:49:38.602Z,28.50
2019-04-27T18:52:26.624Z,28.70
2019-04-27T18:54:56.390Z,28.60
2019-04-27T18:57:27.954Z,28.80
2019-04-27T18:59:58.289Z,29.10
2019-04-27T19:02:28.834Z,29.40
2019-04-27T19:04:58.631Z,29.60
2019-04-27T19:07:29.014Z,29.30
2019-04-27T19:09:59.121Z,29.60
2019-04-27T19:12:28.895Z,29.00
2019-04-27T19:14:59.917Z,29.30
2019-04-27T19:17:29.920Z,29.30
2019-04-27T19:19:59.843Z,29.20
2019-04-27T19:22:29.989Z,29.10
2019-04-27T19:24:59.915Z,29.00
2019-04-27T19:27:34.294Z,28.80
2019-04-27T19:30:16.754Z,28.70
2019-04-27T19:32:46.511Z,28.70
2019-04-27T19:35:16.232Z,28.60
2019-04-27T19:37:46.038Z,28.50
2019-04-27T19:40:15.963Z,28.40
2019-04-27T19:42:45.640Z,28.40
2019-04-27T19:45:20.804Z,28.30
2019-04-27T19:47:50.844Z,28.30
2019-04-27T19:50:20.542Z,28.30
2019-04-27T19:52:50.379Z,28.20
2019-04-27T19:55:20.118Z,28.20
2019-04-27T19:57:49.909Z,28.20
2019-04-27T20:00:39.725Z,28.50
2019-04-27T20:03:11.187Z,29.70
2019-04-27T20:05:40.859Z,29.20
2019-04-27T20:08:15.820Z,29.10
2019-04-27T20:10:48.216Z,28.90
2019-04-27T20:13:17.212Z,28.80
2019-04-27T20:16:06.300Z,28.70
2019-04-27T20:18:35.984Z,28.70
2019-04-27T20:21:05.600Z,28.70
2019-04-27T20:23:35.391Z,28.70
2019-04-27T20:26:05.235Z,28.70
2019-04-27T20:28:34.863Z,28.70
2019-04-27T20:31:04.680Z,28.50
2019-04-27T20:33:34.391Z,28.60
2019-04-27T20:36:04.173Z,28.60
2019-04-27T20:38:33.982Z,28.70
2019-04-27T20:41:04.063Z,28.60
2019-04-27T20:43:33.867Z,28.60
2019-04-27T20:46:03.687Z,28.70
2019-04-27T20:48:33.414Z,28.60
2019-04-27T20:51:03.106Z,28.60
2019-04-27T20:53:41.851Z,28.50
2019-04-27T20:56:11.677Z,28.60
2019-04-27T20:58:41.387Z,28.50
2019-04-27T21:01:11.194Z,28.40
2019-04-27T21:03:42.652Z,28.40
2019-04-27T21:06:25.768Z,28.50
2019-04-27T21:08:55.515Z,28.50
2019-04-27T21:11:27.211Z,28.60
2019-04-27T21:13:57.449Z,28.70
2019-04-27T21:16:27.202Z,28.90
2019-04-27T21:18:56.867Z,29.10
2019-04-27T21:21:26.570Z,29.40
2019-04-27T21:23:57.296Z,29.20
2019-04-27T21:26:27.058Z,29.10
2019-04-27T21:28:56.770Z,29.20
2019-04-27T21:31:26.435Z,29.20
2019-04-27T21:33:56.135Z,29.40
2019-04-27T21:36:25.978Z,29.30
2019-04-27T21:38:55.645Z,29.30
2019-04-27T21:41:25.768Z,29.20
2019-04-27T21:43:55.786Z,29.20
2019-04-27T21:46:25.800Z,29.00
2019-04-27T21:48:56.866Z,29.20
2019-04-27T21:51:28.557Z,29.00
2019-04-27T21:54:03.210Z,29.10
2019-04-27T21:56:33.183Z,28.90
2019-04-27T21:59:14.328Z,28.90
2019-04-27T22:01:45.203Z,28.90
2019-04-27T22:04:15.369Z,28.80
2019-04-27T22:06:45.462Z,29.00
2019-04-27T22:09:16.063Z,28.90
2019-04-27T22:11:45.963Z,28.90
2019-04-27T22:14:16.045Z,28.90
2019-04-27T22:16:45.997Z,28.90
2019-04-27T22:19:15.889Z,29.00
2019-04-27T22:21:45.562Z,29.00
2019-04-27T22:24:22.656Z,29.00
2019-04-27T22:26:52.802Z,29.00
2019-04-27T22:29:22.480Z,29.00
2019-04-27T22:31:52.379Z,29.00
2019-04-27T22:34:22.132Z,29.00
2019-04-27T22:36:51.812Z,29.00
2019-04-27T22:39:23.141Z,29.20
2019-04-27T22:42:12.097Z,34.50
2019-04-27T22:44:44.172Z,36.00
2019-04-27T22:47:13.973Z,35.90
2019-04-27T22:49:43.696Z,35.70
2019-04-27T22:52:13.432Z,35.70
2019-04-27T22:54:43.012Z,35.10
2019-04-27T22:57:14.287Z,35.40
2019-04-27T22:59:54.660Z,35.60
2019-04-27T23:02:31.913Z,35.10
2019-04-27T23:05:02.884Z,35.40
2019-04-27T23:07:32.502Z,35.30
2019-04-27T23:10:02.229Z,35.00
2019-04-27T23:12:31.914Z,35.10
2019-04-27T23:15:01.716Z,35.00
2019-04-27T23:17:42.298Z,34.70
2019-04-27T23:20:12.029Z,34.80
2019-04-27T23:22:41.752Z,34.70
2019-04-27T23:25:11.729Z,34.70
2019-04-27T23:27:41.464Z,34.50
2019-04-27T23:30:12.165Z,34.20
2019-04-27T23:32:46.017Z,34.70
2019-04-27T23:35:15.840Z,34.70
2019-04-27T23:37:45.647Z,35.00
2019-04-27T23:40:16.052Z,35.00
2019-04-27T23:42:45.744Z,34.80
2019-04-27T23:45:15.603Z,34.80
2019-04-27T23:47:45.251Z,34.80
2019-04-27T23:50:15.132Z,34.70
2019-04-27T23:52:58.684Z,34.70
2019-04-27T23:55:30.985Z,34.80
2019-04-27T23:58:00.699Z,34.80
